Time;durP1;ratioP1;P1;durP2;ratioP2;P2;SDS_P1;SDS_P2;PMS_P1;PMS_P2;Temp;Humidity;BMP_temperature;BMP_pressure;BME280_temperature;BME280_humidity;BME280_pressure;Samples;Min_cycle;Max_cycle;Signal;HPM_P1;HPM_P2
2021/04/27 00:02:23;;;;;;;;;;;4.30;72.70;;;;;;5091025;28;20284;-72
2021/04/27 00:04:48;;;;;;;;;;;4.30;73.20;;;;;;5091310;28;19912;-72
2021/04/27 00:07:14;;;;;;;;;;;4.10;73.30;;;;;;5090022;28;19926;-71
2021/04/27 00:09:40;;;;;;;;;;;4.00;73.70;;;;;;5091168;28;19931;-70
2021/04/27 00:12:06;;;;;;;;;;;3.90;74.00;;;;;;5091020;28;19915;-71
2021/04/27 00:14:32;;;;;;;;;;;3.90;74.50;;;;;;5090880;28;19908;-71
2021/04/27 00:16:58;;;;;;;;;;;3.90;74.90;;;;;;5089264;28;19908;-72
2021/04/27 00:19:23;;;;;;;;;;;3.80;75.50;;;;;;5091109;28;19908;-71
2021/04/27 00:21:49;;;;;;;;;;;3.70;75.80;;;;;;5089654;28;19912;-71
2021/04/27 00:24:14;;;;;;;;;;;3.60;75.80;;;;;;5090726;28;19919;-71
2021/04/27 00:26:40;;;;;;;;;;;3.60;76.00;;;;;;5090074;28;20026;-71
2021/04/27 00:29:05;;;;;;;;;;;3.50;76.00;;;;;;5085397;28;19908;-70
2021/04/27 00:31:31;;;;;;;;;;;3.40;75.60;;;;;;5090448;28;19915;-71
2021/04/27 00:33:57;;;;;;;;;;;3.40;75.90;;;;;;5090801;28;20289;-71
2021/04/27 00:36:23;;;;;;;;;;;3.40;75.30;;;;;;5089805;28;20031;-71
2021/04/27 00:38:48;;;;;;;;;;;3.40;75.70;;;;;;5091259;28;19924;-71
2021/04/27 00:41:14;;;;;;;;;;;3.30;75.90;;;;;;5090824;28;19912;-70
2021/04/27 00:43:40;;;;;;;;;;;3.20;75.60;;;;;;5090895;28;20470;-71
2021/04/27 00:46:06;;;;;;;;;;;3.20;76.00;;;;;;5089408;28;19961;-70
2021/04/27 00:48:32;;;;;;;;;;;3.20;75.60;;;;;;5090764;28;19912;-72
2021/04/27 00:50:58;;;;;;;;;;;3.20;75.90;;;;;;5090792;28;19908;-71
2021/04/27 00:53:23;;;;;;;;;;;3.20;76.00;;;;;;5090707;28;19908;-71
2021/04/27 00:55:49;;;;;;;;;;;3.20;76.40;;;;;;5089827;28;19908;-71
2021/04/27 00:58:15;;;;;;;;;;;3.20;77.00;;;;;;5085164;28;19916;-71
2021/04/27 01:00:41;;;;;;;;;;;3.10;76.70;;;;;;5090367;28;19915;-71
2021/04/27 01:03:07;;;;;;;;;;;3.10;76.70;;;;;;5089268;28;19908;-71
2021/04/27 01:05:34;;;;;;;;;;;3.10;76.10;;;;;;5090207;28;19908;-71
2021/04/27 01:08:16;;;;;;;;;;;3.00;76.00;;;;;;5088793;28;19912;-71
2021/04/27 01:10:48;;;;;;;;;;;3.00;76.30;;;;;;5090652;28;19930;-72
2021/04/27 01:13:21;;;;;;;;;;;2.90;76.70;;;;;;5090581;28;20050;-71
2021/04/27 01:15:48;;;;;;;;;;;2.80;77.20;;;;;;5088034;28;19915;-71
2021/04/27 01:18:14;;;;;;;;;;;2.80;77.20;;;;;;5090302;28;19908;-71
2021/04/27 01:20:44;;;;;;;;;;;2.80;77.20;;;;;;5090653;28;20288;-72
2021/04/27 01:23:27;;;;;;;;;;;2.80;77.50;;;;;;5084630;28;19912;-71
2021/04/27 01:26:02;;;;;;;;;;;2.70;77.20;;;;;;5090048;28;19912;-71
2021/04/27 01:28:29;;;;;;;;;;;2.70;77.20;;;;;;5088315;28;19909;-71
2021/04/27 01:30:55;;;;;;;;;;;2.70;77.10;;;;;;5093983;28;19908;-71
2021/04/27 01:33:23;;;;;;;;;;;2.70;77.80;;;;;;5093926;28;19912;-71
2021/04/27 01:35:49;;;;;;;;;;;2.60;78.20;;;;;;5093150;28;19908;-71
2021/04/27 01:38:15;;;;;;;;;;;2.50;78.20;;;;;;5093827;28;19923;-71
2021/04/27 01:40:41;;;;;;;;;;;2.50;78.10;;;;;;5093756;28;19912;-71
2021/04/27 01:43:07;;;;;;;;;;;2.40;78.30;;;;;;5093725;28;20178;-71
2021/04/27 01:45:33;;;;;;;;;;;2.40;78.20;;;;;;5093128;28;19908;-71
2021/04/27 01:47:59;;;;;;;;;;;2.40;78.60;;;;;;5093219;28;19912;-71
2021/04/27 01:50:25;;;;;;;;;;;2.30;78.60;;;;;;5093717;28;19912;-71
2021/04/27 01:52:50;;;;;;;;;;;2.30;79.20;;;;;;5093647;28;19912;-71
2021/04/27 01:55:17;;;;;;;;;;;2.20;78.70;;;;;;5093588;28;19909;-71
2021/04/27 01:57:43;;;;;;;;;;;2.20;79.20;;;;;;5091595;28;19908;-71
2021/04/27 02:00:10;;;;;;;;;;;2.20;79.60;;;;;;5088647;28;19914;-71
2021/04/27 02:02:35;;;;;;;;;;;2.10;80.10;;;;;;5093279;28;20073;-71
2021/04/27 02:05:01;;;;;;;;;;;2.10;80.50;;;;;;5093425;28;19995;-71
2021/04/27 02:07:26;;;;;;;;;;;2.00;80.50;;;;;;5091158;28;19912;-71
2021/04/27 02:09:52;;;;;;;;;;;1.90;80.70;;;;;;5093553;28;19926;-71
2021/04/27 02:12:17;;;;;;;;;;;1.90;81.10;;;;;;5093380;28;19908;-71
2021/04/27 02:14:43;;;;;;;;;;;1.80;81.80;;;;;;5093496;28;19908;-71
2021/04/27 02:17:19;;;;;;;;;;;1.80;81.80;;;;;;5092056;28;20486;-71
2021/04/27 02:19:45;;;;;;;;;;;1.70;81.80;;;;;;5093419;28;19916;-71
2021/04/27 02:22:11;;;;;;;;;;;1.60;82.30;;;;;;5093350;28;19916;-71
2021/04/27 02:24:37;;;;;;;;;;;1.60;82.90;;;;;;5093367;28;19908;-71
2021/04/27 02:27:03;;;;;;;;;;;1.60;83.00;;;;;;5092063;28;19908;-71
2021/04/27 02:29:30;;;;;;;;;;;1.60;83.00;;;;;;5087532;28;19908;-71
2021/04/27 02:32:00;;;;;;;;;;;1.60;83.00;;;;;;5091879;28;20008;-71
2021/04/27 02:34:26;;;;;;;;;;;1.60;83.10;;;;;;5092992;28;19908;-71
2021/04/27 02:36:52;;;;;;;;;;;1.50;83.30;;;;;;5092013;28;19915;-71
2021/04/27 02:39:18;;;;;;;;;;;1.50;83.60;;;;;;5090691;28;19923;-71
2021/04/27 02:41:44;;;;;;;;;;;1.40;83.80;;;;;;5092880;28;19919;-71
2021/04/27 02:44:10;;;;;;;;;;;1.40;84.30;;;;;;5092900;28;19908;-71
2021/04/27 02:46:35;;;;;;;;;;;1.30;84.40;;;;;;5091917;28;19915;-71
2021/04/27 02:49:02;;;;;;;;;;;1.30;84.60;;;;;;5092807;28;19908;-71
2021/04/27 02:51:27;;;;;;;;;;;1.20;84.40;;;;;;5092742;28;20025;-71
2021/04/27 02:53:53;;;;;;;;;;;1.20;84.60;;;;;;5092670;28;20402;-71
2021/04/27 02:56:18;;;;;;;;;;;1.20;85.20;;;;;;5091620;28;19961;-71
2021/04/27 02:58:44;;;;;;;;;;;1.20;85.40;;;;;;5087170;28;19908;-71
2021/04/27 03:01:09;;;;;;;;;;;1.20;85.50;;;;;;5091946;28;19919;-71
2021/04/27 03:03:35;;;;;;;;;;;1.20;85.70;;;;;;5092401;28;19908;-71
2021/04/27 03:06:00;;;;;;;;;;;1.10;86.00;;;;;;5091698;28;19919;-71
2021/04/27 03:08:26;;;;;;;;;;;1.10;86.20;;;;;;5092391;28;19908;-71
2021/04/27 03:10:52;;;;;;;;;;;1.00;86.30;;;;;;5092377;28;19981;-71
2021/04/27 03:13:18;;;;;;;;;;;1.00;86.50;;;;;;5092104;28;19908;-71
2021/04/27 03:15:44;;;;;;;;;;;1.00;86.70;;;;;;5091021;28;19957;-71
2021/04/27 03:18:09;;;;;;;;;;;0.90;86.80;;;;;;5092223;28;20333;-71
2021/04/27 03:20:35;;;;;;;;;;;1.00;87.00;;;;;;5092179;28;20296;-70
2021/04/27 03:23:00;;;;;;;;;;;1.00;87.00;;;;;;5092069;28;19919;-71
2021/04/27 03:25:26;;;;;;;;;;;1.00;87.00;;;;;;5091999;28;19912;-71
2021/04/27 03:27:51;;;;;;;;;;;1.00;87.30;;;;;;5089187;28;20357;-71
2021/04/27 03:30:17;;;;;;;;;;;1.10;87.60;;;;;;5097211;28;19935;-70
2021/04/27 03:32:43;;;;;;;;;;;1.00;87.90;;;;;;5092926;28;19908;-72
2021/04/27 03:35:09;;;;;;;;;;;1.00;88.40;;;;;;5092058;28;20285;-71
2021/04/27 03:37:35;;;;;;;;;;;1.00;88.50;;;;;;5090612;28;19924;-70
2021/04/27 03:40:01;;;;;;;;;;;1.00;88.70;;;;;;5091687;28;19947;-70
2021/04/27 03:42:27;;;;;;;;;;;1.00;88.90;;;;;;5091567;28;19958;-70
2021/04/27 03:44:52;;;;;;;;;;;1.00;89.10;;;;;;5091728;28;19912;-71
2021/04/27 03:47:18;;;;;;;;;;;1.00;89.30;;;;;;5090843;28;19954;-70
2021/04/27 03:49:44;;;;;;;;;;;1.00;89.40;;;;;;5091606;28;19915;-70
2021/04/27 03:52:09;;;;;;;;;;;1.00;89.60;;;;;;5091741;28;19922;-70
2021/04/27 03:54:35;;;;;;;;;;;1.00;89.80;;;;;;5091385;28;19908;-70
2021/04/27 03:57:02;;;;;;;;;;;1.00;90.00;;;;;;5089298;28;20334;-72
2021/04/27 03:59:27;;;;;;;;;;;1.00;90.10;;;;;;5085845;28;19995;-70
2021/04/27 04:01:53;;;;;;;;;;;1.00;90.10;;;;;;5090940;28;20034;-70
2021/04/27 04:04:18;;;;;;;;;;;1.00;90.20;;;;;;5091433;28;19908;-72
2021/04/27 04:06:44;;;;;;;;;;;1.00;90.40;;;;;;5090480;28;19908;-70
2021/04/27 04:09:10;;;;;;;;;;;1.10;90.70;;;;;;5091239;28;20430;-70
2021/04/27 04:11:36;;;;;;;;;;;1.10;90.80;;;;;;5091406;28;19908;-70
2021/04/27 04:14:01;;;;;;;;;;;1.20;90.90;;;;;;5091277;28;19916;-71
2021/04/27 04:16:28;;;;;;;;;;;1.20;90.90;;;;;;5090275;28;20006;-71
2021/04/27 04:18:54;;;;;;;;;;;1.20;90.90;;;;;;5091330;28;20422;-70
2021/04/27 04:21:19;;;;;;;;;;;1.10;91.00;;;;;;5091245;28;19912;-73
2021/04/27 04:23:46;;;;;;;;;;;1.10;91.20;;;;;;5090996;28;19912;-72
2021/04/27 04:26:12;;;;;;;;;;;1.10;91.30;;;;;;5090109;28;19909;-70
2021/04/27 04:28:37;;;;;;;;;;;1.00;91.50;;;;;;5085622;28;19908;-72
2021/04/27 04:31:03;;;;;;;;;;;1.10;91.80;;;;;;5089441;28;19908;-70
2021/04/27 04:33:28;;;;;;;;;;;1.10;92.00;;;;;;5091519;28;20293;-70
2021/04/27 04:35:54;;;;;;;;;;;1.10;92.30;;;;;;5090481;28;19912;-71
2021/04/27 04:38:19;;;;;;;;;;;1.10;92.30;;;;;;5090733;28;19916;-71
2021/04/27 04:40:45;;;;;;;;;;;1.10;92.30;;;;;;5090972;28;20032;-70
2021/04/27 04:43:11;;;;;;;;;;;1.20;92.30;;;;;;5090987;28;19919;-70
2021/04/27 04:45:36;;;;;;;;;;;1.20;92.40;;;;;;5090096;28;19908;-71
2021/04/27 04:48:02;;;;;;;;;;;1.20;92.40;;;;;;5089927;28;19908;-71
2021/04/27 04:50:28;;;;;;;;;;;1.30;92.60;;;;;;5090882;28;20262;-73
2021/04/27 04:52:53;;;;;;;;;;;1.30;92.60;;;;;;5090731;28;19908;-70
2021/04/27 04:55:19;;;;;;;;;;;1.30;92.60;;;;;;5090905;28;19961;-70
2021/04/27 04:57:45;;;;;;;;;;;1.40;92.60;;;;;;5088840;28;19908;-70
2021/04/27 05:00:16;;;;;;;;;;;1.40;92.80;;;;;;5086689;28;19912;-70
2021/04/27 05:02:41;;;;;;;;;;;1.50;92.80;;;;;;5092442;28;19920;-70
2021/04/27 05:05:07;;;;;;;;;;;1.50;92.80;;;;;;5094761;28;19908;-70
2021/04/27 05:07:40;;;;;;;;;;;1.60;93.00;;;;;;5092165;28;20369;-74
2021/04/27 05:10:06;;;;;;;;;;;1.60;92.90;;;;;;5094553;28;19953;-70
2021/04/27 05:12:31;;;;;;;;;;;1.70;92.90;;;;;;5094366;28;19912;-71
2021/04/27 05:14:57;;;;;;;;;;;1.70;93.00;;;;;;5094559;28;19908;-70
2021/04/27 05:17:22;;;;;;;;;;;1.80;93.10;;;;;;5093198;28;19908;-74
2021/04/27 05:19:48;;;;;;;;;;;1.90;93.00;;;;;;5094247;28;20015;-70
2021/04/27 05:22:13;;;;;;;;;;;1.90;92.90;;;;;;5092890;28;19916;-70
2021/04/27 05:24:39;;;;;;;;;;;2.10;92.60;;;;;;5094056;28;19950;-71
2021/04/27 05:27:06;;;;;;;;;;;2.20;92.30;;;;;;5093339;28;20437;-73
2021/04/27 05:29:31;;;;;;;;;;;2.30;92.10;;;;;;5089777;28;20308;-70
2021/04/27 05:31:57;;;;;;;;;;;2.40;92.30;;;;;;5112767;28;19915;-70
2021/04/27 05:34:23;;;;;;;;;;;2.50;92.00;;;;;;5114149;28;19907;-72
2021/04/27 05:36:48;;;;;;;;;;;2.50;91.60;;;;;;5111882;28;19915;-70
2021/04/27 05:39:14;;;;;;;;;;;2.70;91.20;;;;;;5114098;28;19919;-70
2021/04/27 05:41:40;;;;;;;;;;;2.80;90.90;;;;;;5114349;28;19934;-71
2021/04/27 05:44:06;;;;;;;;;;;2.90;90.70;;;;;;5114249;28;20360;-71
2021/04/27 05:46:32;;;;;;;;;;;3.10;90.20;;;;;;5112960;28;19912;-70
2021/04/27 05:48:57;;;;;;;;;;;3.20;89.50;;;;;;5113988;28;20477;-70
2021/04/27 05:51:23;;;;;;;;;;;3.30;88.80;;;;;;5114153;28;19908;-72
2021/04/27 05:53:48;;;;;;;;;;;3.40;90.00;;;;;;5113940;28;19915;-71
2021/04/27 05:56:14;;;;;;;;;;;3.60;88.10;;;;;;5113053;28;19907;-70
2021/04/27 05:58:39;;;;;;;;;;;3.70;86.70;;;;;;5099338;28;19961;-72
2021/04/27 06:01:05;;;;;;;;;;;3.80;87.20;;;;;;5093047;28;19912;-70
2021/04/27 06:03:30;;;;;;;;;;;3.80;87.00;;;;;;5093488;28;19987;-70
2021/04/27 06:05:56;;;;;;;;;;;3.90;87.50;;;;;;5078433;28;20292;-70
2021/04/27 06:08:21;;;;;;;;;;;4.00;87.40;;;;;;5092539;28;19908;-73
2021/04/27 06:10:47;;;;;;;;;;;4.10;86.90;;;;;;5091522;28;19908;-70
2021/04/27 06:13:12;;;;;;;;;;;4.20;87.00;;;;;;5081770;28;19950;-70
2021/04/27 06:15:38;;;;;;;;;;;4.30;87.50;;;;;;5091321;28;19912;-71
2021/04/27 06:18:03;;;;;;;;;;;4.40;87.90;;;;;;5083943;28;19955;-70
2021/04/27 06:20:29;;;;;;;;;;;4.50;86.00;;;;;;5087324;28;19998;-70
2021/04/27 06:22:54;;;;;;;;;;;4.70;86.00;;;;;;5089774;28;19963;-73
2021/04/27 06:25:20;;;;;;;;;;;4.80;86.10;;;;;;5088114;28;19919;-72
2021/04/27 06:27:45;;;;;;;;;;;4.90;86.20;;;;;;5091195;28;19908;-70
2021/04/27 06:30:12;;;;;;;;;;;5.00;85.80;;;;;;5089119;28;19930;-70
2021/04/27 06:32:37;;;;;;;;;;;5.20;85.60;;;;;;5092558;28;20412;-71
2021/04/27 06:35:03;;;;;;;;;;;5.30;86.70;;;;;;5092607;28;20097;-70
2021/04/27 06:37:29;;;;;;;;;;;5.50;85.60;;;;;;5091875;28;20396;-71
2021/04/27 06:39:55;;;;;;;;;;;5.60;85.30;;;;;;5092607;28;19908;-71
2021/04/27 06:42:20;;;;;;;;;;;5.80;85.20;;;;;;5092451;28;19968;-74
2021/04/27 06:44:46;;;;;;;;;;;5.90;84.90;;;;;;5092530;28;19912;-71
2021/04/27 06:47:12;;;;;;;;;;;6.00;84.20;;;;;;5091181;28;19908;-71
2021/04/27 06:49:37;;;;;;;;;;;6.20;84.00;;;;;;5092439;28;19912;-71
2021/04/27 06:52:04;;;;;;;;;;;6.20;82.70;;;;;;5092481;28;19908;-71
2021/04/27 06:54:29;;;;;;;;;;;6.30;82.30;;;;;;5090949;28;19923;-72
2021/04/27 06:56:55;;;;;;;;;;;6.40;82.60;;;;;;5091296;28;19916;-71
2021/04/27 06:59:21;;;;;;;;;;;6.50;82.90;;;;;;5086412;28;19962;-70
2021/04/27 07:01:47;;;;;;;;;;;6.60;81.90;;;;;;5091621;28;19919;-71
2021/04/27 07:04:13;;;;;;;;;;;6.80;80.90;;;;;;5092048;28;19908;-71
2021/04/27 07:06:38;;;;;;;;;;;7.10;80.00;;;;;;5091210;28;19987;-71
2021/04/27 07:09:04;;;;;;;;;;;7.40;80.10;;;;;;5091993;28;19909;-71
2021/04/27 07:11:31;;;;;;;;;;;7.60;79.80;;;;;;5090775;28;19909;-71
2021/04/27 07:13:57;;;;;;;;;;;7.70;78.40;;;;;;5091133;28;19912;-71
2021/04/27 07:16:23;;;;;;;;;;;7.80;78.50;;;;;;5093526;28;19916;-71
2021/04/27 07:18:48;;;;;;;;;;;8.10;78.00;;;;;;5091313;28;19960;-71
2021/04/27 07:21:15;;;;;;;;;;;8.70;77.40;;;;;;5091741;28;19912;-72
2021/04/27 07:23:41;;;;;;;;;;;9.50;76.60;;;;;;5091720;28;20369;-72
2021/04/27 07:26:07;;;;;;;;;;;10.50;73.60;;;;;;5090705;28;19915;-72
2021/04/27 07:28:33;;;;;;;;;;;11.40;69.20;;;;;;5088679;28;19909;-74
2021/04/27 07:30:59;;;;;;;;;;;12.00;66.40;;;;;;5111658;28;20385;-71
2021/04/27 07:33:24;;;;;;;;;;;12.60;66.70;;;;;;5111858;28;20280;-72
2021/04/27 07:35:50;;;;;;;;;;;13.20;64.40;;;;;;5110894;28;20127;-71
2021/04/27 07:38:15;;;;;;;;;;;13.60;63.60;;;;;;5111842;28;19916;-71
2021/04/27 07:40:41;;;;;;;;;;;13.90;60.90;;;;;;5111838;28;20423;-72
2021/04/27 07:43:06;;;;;;;;;;;14.00;60.90;;;;;;5112327;28;19908;-72
2021/04/27 07:45:33;;;;;;;;;;;14.00;58.80;;;;;;5111238;28;20010;-71
2021/04/27 07:48:00;;;;;;;;;;;14.30;60.80;;;;;;5110392;28;19912;-72
2021/04/27 07:50:26;;;;;;;;;;;14.50;59.50;;;;;;5111692;28;19998;-72
2021/04/27 07:52:52;;;;;;;;;;;14.30;60.70;;;;;;5111673;28;19935;-72
2021/04/27 07:55:18;;;;;;;;;;;14.60;59.70;;;;;;5111909;28;20344;-72
2021/04/27 07:57:44;;;;;;;;;;;14.70;59.10;;;;;;5108520;28;20331;-72
2021/04/27 08:00:10;;;;;;;;;;;15.00;60.60;;;;;;5086737;28;19908;-72
2021/04/27 08:02:36;;;;;;;;;;;15.40;58.90;;;;;;5090716;28;20497;-72
2021/04/27 08:05:02;;;;;;;;;;;15.60;59.10;;;;;;5091304;28;19912;-72
2021/04/27 08:07:28;;;;;;;;;;;15.90;57.60;;;;;;5090079;28;19909;-72
2021/04/27 08:09:53;;;;;;;;;;;16.00;57.70;;;;;;5090967;28;19909;-73
2021/04/27 08:12:19;;;;;;;;;;;15.90;55.90;;;;;;5091053;28;19914;-72
2021/04/27 08:14:44;;;;;;;;;;;15.80;55.50;;;;;;5091118;28;20331;-71
2021/04/27 08:17:10;;;;;;;;;;;15.80;56.40;;;;;;5089615;28;19939;-72
2021/04/27 08:19:35;;;;;;;;;;;16.10;56.90;;;;;;5090916;28;19908;-72
2021/04/27 08:22:01;;;;;;;;;;;16.20;55.50;;;;;;5090746;28;19920;-72
2021/04/27 08:24:27;;;;;;;;;;;16.10;54.80;;;;;;5090935;28;20349;-72
2021/04/27 08:26:52;;;;;;;;;;;16.10;56.40;;;;;;5090040;28;20003;-71
2021/04/27 08:29:18;;;;;;;;;;;16.40;57.80;;;;;;5085166;28;19959;-72
2021/04/27 08:31:44;;;;;;;;;;;16.50;55.80;;;;;;5090434;28;19919;-72
2021/04/27 08:34:09;;;;;;;;;;;16.70;55.20;;;;;;5089441;28;19950;-72
2021/04/27 08:36:35;;;;;;;;;;;16.80;54.60;;;;;;5089867;28;19908;-72
2021/04/27 08:39:01;;;;;;;;;;;17.00;53.80;;;;;;5095027;28;19927;-72
2021/04/27 08:41:26;;;;;;;;;;;17.10;54.20;;;;;;5095062;28;19957;-72
2021/04/27 08:43:52;;;;;;;;;;;17.40;54.50;;;;;;5094629;28;19926;-71
2021/04/27 08:46:18;;;;;;;;;;;17.90;55.30;;;;;;5093334;28;20306;-70
2021/04/27 08:48:44;;;;;;;;;;;18.30;54.30;;;;;;5094642;28;19908;-71
2021/04/27 08:51:13;;;;;;;;;;;18.80;54.20;;;;;;5093385;28;19995;-70
2021/04/27 08:53:39;;;;;;;;;;;18.90;53.30;;;;;;5094779;28;19999;-71
2021/04/27 08:56:04;;;;;;;;;;;19.10;51.90;;;;;;5094126;28;19948;-71
2021/04/27 08:58:30;;;;;;;;;;;19.50;51.50;;;;;;5088587;28;20103;-71
2021/04/27 09:00:55;;;;;;;;;;;19.80;53.10;;;;;;5103304;28;19912;-70
2021/04/27 09:03:21;;;;;;;;;;;19.90;52.30;;;;;;5112602;28;19947;-70
2021/04/27 09:05:47;;;;;;;;;;;19.80;50.00;;;;;;5112887;28;19908;-73
2021/04/27 09:08:12;;;;;;;;;;;19.50;49.30;;;;;;5114739;28;20377;-72
2021/04/27 09:10:45;;;;;;;;;;;19.10;49.80;;;;;;5114942;28;20012;-72
2021/04/27 09:13:12;;;;;;;;;;;18.80;52.40;;;;;;5114591;28;19912;-73
2021/04/27 09:15:42;;;;;;;;;;;19.20;54.00;;;;;;5114303;28;19908;-68
2021/04/27 09:18:30;;;;;;;;;;;19.80;53.20;;;;;;5112715;28;20002;-69
2021/04/27 09:20:59;;;;;;;;;;;20.20;48.50;;;;;;5114618;28;19915;-71
2021/04/27 09:23:25;;;;;;;;;;;20.30;46.70;;;;;;5114632;28;19908;-72
2021/04/27 09:26:11;;;;;;;;;;;20.30;51.50;;;;;;5113645;28;20382;-70
2021/04/27 09:28:40;;;;;;;;;;;20.40;48.40;;;;;;5100469;28;19914;-70
2021/04/27 09:31:26;;;;;;;;;;;20.40;48.70;;;;;;5093799;28;19995;-70
2021/04/27 09:33:52;;;;;;;;;;;20.10;45.50;;;;;;5093445;28;19958;-72
2021/04/27 09:36:31;;;;;;;;;;;19.50;49.20;;;;;;5092917;28;20346;-73
2021/04/27 09:38:56;;;;;;;;;;;19.20;46.60;;;;;;5093848;28;19922;-72
2021/04/27 09:41:23;;;;;;;;;;;19.20;48.80;;;;;;5094213;28;20010;-72
2021/04/27 09:43:50;;;;;;;;;;;19.50;50.70;;;;;;5092493;28;19908;-72
2021/04/27 09:46:16;;;;;;;;;;;20.00;49.60;;;;;;5092501;28;19908;-70
2021/04/27 09:48:47;;;;;;;;;;;20.30;47.90;;;;;;5092823;28;19912;-70
2021/04/27 09:51:12;;;;;;;;;;;20.60;49.90;;;;;;5093562;28;19950;-71
2021/04/27 09:53:41;;;;;;;;;;;20.40;46.60;;;;;;5092320;28;20266;-71
2021/04/27 09:56:08;;;;;;;;;;;20.30;45.80;;;;;;5092906;28;19915;-71
2021/04/27 09:58:34;;;;;;;;;;;19.80;45.00;;;;;;5088184;28;20368;-71
2021/04/27 10:01:01;;;;;;;;;;;19.90;48.90;;;;;;5093308;28;19915;-71
2021/04/27 10:03:27;;;;;;;;;;;20.30;47.70;;;;;;5093240;28;19908;-70
2021/04/27 10:05:52;;;;;;;;;;;20.50;48.40;;;;;;5092841;28;19923;-71
2021/04/27 10:08:18;;;;;;;;;;;20.70;47.60;;;;;;5093538;28;19908;-71
2021/04/27 10:10:44;;;;;;;;;;;20.80;46.60;;;;;;5093873;28;19908;-71
2021/04/27 10:13:10;;;;;;;;;;;20.60;45.50;;;;;;5093595;28;19915;-71
2021/04/27 10:15:36;;;;;;;;;;;20.30;45.00;;;;;;5090156;28;19977;-71
2021/04/27 10:18:03;;;;;;;;;;;20.30;47.20;;;;;;5092774;28;19912;-71
2021/04/27 10:20:29;;;;;;;;;;;20.50;48.60;;;;;;5093297;28;19963;-71
2021/04/27 10:22:56;;;;;;;;;;;20.60;48.90;;;;;;5092993;28;20233;-71
2021/04/27 10:25:23;;;;;;;;;;;21.00;48.60;;;;;;5092646;28;19920;-70
2021/04/27 10:27:55;;;;;;;;;;;21.10;47.20;;;;;;5090140;28;20017;-71
2021/04/27 10:30:22;;;;;;;;;;;21.00;47.00;;;;;;5085434;28;20007;-71
2021/04/27 10:33:02;;;;;;;;;;;21.00;46.80;;;;;;5091016;28;20123;-69
2021/04/27 10:35:31;;;;;;;;;;;20.70;45.80;;;;;;5092023;28;19931;-71
2021/04/27 10:37:57;;;;;;;;;;;21.00;47.00;;;;;;5091613;28;19916;-71
2021/04/27 10:40:42;;;;;;;;;;;20.80;47.60;;;;;;5092538;28;20396;-71
2021/04/27 10:43:23;;;;;;;;;;;20.60;45.10;;;;;;5092280;28;19923;-70
2021/04/27 10:45:49;;;;;;;;;;;20.60;47.90;;;;;;5091282;28;19908;-71
2021/04/27 10:48:25;;;;;;;;;;;20.70;47.00;;;;;;5091928;28;20361;-71
2021/04/27 10:50:50;;;;;;;;;;;20.70;46.00;;;;;;5091929;28;19908;-71
2021/04/27 10:53:34;;;;;;;;;;;20.40;47.20;;;;;;5091810;28;20021;-70
2021/04/27 10:56:00;;;;;;;;;;;20.50;47.00;;;;;;5091368;28;19993;-72
2021/04/27 10:58:45;;;;;;;;;;;21.00;46.80;;;;;;5086855;28;20091;-71
2021/04/27 11:01:17;;;;;;;;;;;20.70;44.90;;;;;;5091271;28;20389;-71
2021/04/27 11:03:53;;;;;;;;;;;20.60;46.00;;;;;;5091538;28;19908;-71
2021/04/27 11:06:18;;;;;;;;;;;20.70;44.10;;;;;;5091511;28;19908;-71
2021/04/27 11:08:51;;;;;;;;;;;20.90;44.80;;;;;;5092393;28;19962;-72
2021/04/27 11:11:18;;;;;;;;;;;21.20;46.70;;;;;;5092149;28;20011;-71
2021/04/27 11:13:44;;;;;;;;;;;21.40;44.20;;;;;;5092582;28;19908;-71
2021/04/27 11:16:35;;;;;;;;;;;21.50;43.40;;;;;;5091605;28;20330;-71
2021/04/27 11:19:11;;;;;;;;;;;21.50;44.60;;;;;;5089740;28;19912;-71
2021/04/27 11:21:36;;;;;;;;;;;21.50;45.50;;;;;;5091816;28;20436;-72
2021/04/27 11:24:07;;;;;;;;;;;21.40;41.50;;;;;;5092490;28;20008;-71
2021/04/27 11:26:32;;;;;;;;;;;21.80;42.70;;;;;;5091328;28;20291;-71
2021/04/27 11:29:04;;;;;;;;;;;21.90;43.60;;;;;;5086295;28;19965;-72
2021/04/27 11:31:30;;;;;;;;;;;21.80;41.40;;;;;;5091332;28;19961;-70
2021/04/27 11:33:55;;;;;;;;;;;21.70;42.10;;;;;;5091642;28;19908;-71
2021/04/27 11:36:38;;;;;;;;;;;21.10;42.70;;;;;;5090796;28;19919;-71
2021/04/27 11:39:13;;;;;;;;;;;20.80;44.10;;;;;;5091448;28;20388;-72
2021/04/27 11:41:52;;;;;;;;;;;20.90;42.20;;;;;;5091403;28;19912;-70
2021/04/27 11:44:19;;;;;;;;;;;20.80;41.50;;;;;;5091358;28;20288;-72
2021/04/27 11:46:55;;;;;;;;;;;20.90;42.80;;;;;;5090061;28;19958;-71
2021/04/27 11:49:21;;;;;;;;;;;21.40;42.00;;;;;;5091058;28;20316;-71
2021/04/27 11:51:46;;;;;;;;;;;21.50;41.60;;;;;;5091243;28;19965;-72
2021/04/27 11:54:12;;;;;;;;;;;22.00;42.20;;;;;;5090880;28;19990;-71
2021/04/27 11:56:47;;;;;;;;;;;22.20;41.70;;;;;;5090604;28;20425;-71
2021/04/27 11:59:17;;;;;;;;;;;21.90;41.20;;;;;;5085797;28;19915;-71
2021/04/27 12:01:43;;;;;;;;;;;21.70;42.90;;;;;;5090461;28;19920;-71
2021/04/27 12:04:09;;;;;;;;;;;21.20;43.50;;;;;;5091007;28;19908;-71
2021/04/27 12:06:34;;;;;;;;;;;20.90;42.60;;;;;;5090415;28;19908;-71
2021/04/27 12:09:01;;;;;;;;;;;20.70;42.70;;;;;;5091034;28;19908;-71
2021/04/27 12:11:29;;;;;;;;;;;20.70;42.70;;;;;;5095844;28;19919;-72
2021/04/27 12:14:02;;;;;;;;;;;20.90;41.90;;;;;;5091487;28;20343;-71
2021/04/27 12:16:32;;;;;;;;;;;21.00;40.70;;;;;;5089127;28;19914;-72
2021/04/27 12:18:59;;;;;;;;;;;21.10;42.20;;;;;;5089976;28;19914;-71
2021/04/27 12:21:31;;;;;;;;;;;20.90;43.00;;;;;;5090200;28;19912;-71
2021/04/27 12:24:04;;;;;;;;;;;20.80;41.70;;;;;;5091039;28;19965;-71
2021/04/27 12:26:29;;;;;;;;;;;20.70;42.00;;;;;;5090481;28;19908;-71
2021/04/27 12:28:57;;;;;;;;;;;20.80;42.10;;;;;;5085093;28;20007;-71
2021/04/27 12:31:23;;;;;;;;;;;21.20;41.20;;;;;;5090688;28;20015;-70
2021/04/27 12:33:56;;;;;;;;;;;21.30;40.50;;;;;;5090694;28;19954;-72
2021/04/27 12:36:51;;;;;;;;;;;21.20;41.00;;;;;;5089975;28;19999;-72
2021/04/27 12:39:22;;;;;;;;;;;21.50;42.30;;;;;;5076299;28;19923;-72
2021/04/27 12:41:48;;;;;;;;;;;21.90;42.70;;;;;;5090657;28;19919;-72
2021/04/27 12:44:29;;;;;;;;;;;21.80;39.00;;;;;;5090601;28;19908;-72
2021/04/27 12:46:55;;;;;;;;;;;21.70;40.50;;;;;;5089652;28;19919;-72
2021/04/27 12:49:24;;;;;;;;;;;21.80;40.40;;;;;;5083421;28;19935;-72
2021/04/27 12:51:54;;;;;;;;;;;21.70;40.40;;;;;;5082932;28;19915;-72
2021/04/27 12:54:23;;;;;;;;;;;21.50;39.00;;;;;;5090496;28;20216;-71
2021/04/27 12:57:01;;;;;;;;;;;21.50;39.90;;;;;;5090005;28;20158;-72
2021/04/27 12:59:28;;;;;;;;;;;21.30;39.40;;;;;;5090775;28;20246;-72
2021/04/27 13:02:00;;;;;;;;;;;21.20;40.50;;;;;;5090322;28;19919;-71
2021/04/27 13:04:29;;;;;;;;;;;21.10;41.10;;;;;;5089067;28;20687;-71
2021/04/27 13:06:55;;;;;;;;;;;20.80;40.50;;;;;;5088528;28;19908;-71
2021/04/27 13:09:25;;;;;;;;;;;20.70;40.70;;;;;;5090604;28;19995;-72
2021/04/27 13:11:59;;;;;;;;;;;20.70;40.70;;;;;;5090689;28;20094;-72
2021/04/27 13:14:33;;;;;;;;;;;20.80;39.30;;;;;;5090420;28;19958;-72
2021/04/27 13:17:00;;;;;;;;;;;21.10;40.80;;;;;;5089284;28;19915;-72
2021/04/27 13:19:26;;;;;;;;;;;21.60;39.10;;;;;;5090415;28;19908;-71
2021/04/27 13:22:07;;;;;;;;;;;21.50;39.20;;;;;;5089043;28;19958;-71
2021/04/27 13:24:37;;;;;;;;;;;21.40;38.30;;;;;;5093433;28;19961;-72
2021/04/27 13:27:03;;;;;;;;;;;21.40;37.70;;;;;;5091737;28;19909;-72
2021/04/27 13:29:32;;;;;;;;;;;21.30;40.50;;;;;;5088448;28;19921;-71
2021/04/27 13:32:14;;;;;;;;;;;21.20;38.00;;;;;;5093786;28;19908;-71
2021/04/27 13:34:40;;;;;;;;;;;20.80;35.90;;;;;;5093839;28;19969;-71
2021/04/27 13:37:05;;;;;;;;;;;20.60;37.60;;;;;;5093298;28;20396;-72
2021/04/27 13:39:31;;;;;;;;;;;20.50;37.20;;;;;;5094097;28;20352;-72
2021/04/27 13:41:56;;;;;;;;;;;20.40;38.00;;;;;;5090632;28;19916;-72
2021/04/27 13:44:22;;;;;;;;;;;20.50;39.00;;;;;;5093296;28;19950;-71
2021/04/27 13:46:47;;;;;;;;;;;20.30;38.00;;;;;;5092835;28;19948;-72
2021/04/27 13:49:13;;;;;;;;;;;20.40;38.20;;;;;;5093289;28;20006;-72
2021/04/27 13:51:38;;;;;;;;;;;20.50;38.00;;;;;;5092530;28;19958;-71
2021/04/27 13:54:04;;;;;;;;;;;20.60;38.20;;;;;;5093237;28;19999;-72
2021/04/27 13:56:30;;;;;;;;;;;20.70;38.00;;;;;;5092610;28;19934;-72
2021/04/27 13:58:55;;;;;;;;;;;21.10;38.00;;;;;;5085945;28;19912;-72
2021/04/27 14:01:21;;;;;;;;;;;21.10;36.10;;;;;;5093085;28;19932;-72
2021/04/27 14:03:46;;;;;;;;;;;21.40;39.00;;;;;;5093114;28;20289;-72
2021/04/27 14:06:11;;;;;;;;;;;21.60;35.90;;;;;;5092497;28;20373;-72
2021/04/27 14:08:39;;;;;;;;;;;21.70;35.90;;;;;;5093108;28;20215;-72
2021/04/27 14:11:04;;;;;;;;;;;21.80;36.10;;;;;;5093147;28;19914;-71
2021/04/27 14:13:30;;;;;;;;;;;21.90;37.10;;;;;;5093057;28;20285;-72
2021/04/27 14:15:56;;;;;;;;;;;22.00;33.80;;;;;;5092431;28;19908;-72
2021/04/27 14:18:21;;;;;;;;;;;21.90;35.10;;;;;;5093065;28;20004;-72
2021/04/27 14:20:47;;;;;;;;;;;22.00;37.70;;;;;;5093145;28;19915;-72
2021/04/27 14:23:12;;;;;;;;;;;22.30;35.50;;;;;;5091715;28;19999;-72
2021/04/27 14:25:39;;;;;;;;;;;22.50;34.50;;;;;;5092242;28;20308;-70